Time;durP1;ratioP1;P1;durP2;ratioP2;P2;SDS_P1;SDS_P2;PMS_P1;PMS_P2;Temp;Humidity;BMP_temperature;BMP_pressure;BME280_temperature;BME280_humidity;BME280_pressure;Samples;Min_cycle;Max_cycle;Signal;HPM_P1;HPM_P2
2024/01/25 00:01:11;;;;;;;50.97;9.63;;;6.70;75.80;;;;;;5018391;28;20103;-72
2024/01/25 00:03:37;;;;;;;41.07;9.97;;;6.70;75.70;;;;;;5016876;28;20496;-72
2024/01/25 00:06:04;;;;;;;46.60;9.80;;;6.70;75.70;;;;;;5034475;28;20426;-71
2024/01/25 00:08:30;;;;;;;40.27;9.20;;;6.70;75.80;;;;;;5019744;28;20049;-71
2024/01/25 00:10:56;;;;;;;40.37;9.07;;;6.60;75.90;;;;;;5033601;28;20060;-73
2024/01/25 00:13:21;;;;;;;45.60;10.10;;;6.60;75.90;;;;;;5036044;28;20579;-71
2024/01/25 00:15:47;;;;;;;40.47;9.43;;;6.60;75.90;;;;;;5025162;28;20057;-71
2024/01/25 00:18:13;;;;;;;43.73;9.60;;;6.50;76.10;;;;;;5029970;28;20131;-71
2024/01/25 00:20:38;;;;;;;47.53;9.97;;;6.50;76.10;;;;;;5018709;28;20056;-71
2024/01/25 00:23:04;;;;;;;47.07;9.53;;;6.40;76.20;;;;;;5022002;28;20057;-71
2024/01/25 00:25:30;;;;;;;57.77;10.33;;;6.30;76.40;;;;;;5027965;28;20057;-72
2024/01/25 00:27:56;;;;;;;43.77;9.67;;;6.30;76.40;;;;;;5010896;28;20050;-73
2024/01/25 00:30:21;;;;;;;52.57;10.87;;;6.30;76.50;;;;;;5012374;28;20065;-71
2024/01/25 00:32:48;;;;;;;48.33;10.20;;;6.20;76.80;;;;;;5016489;28;20049;-73
2024/01/25 00:35:14;;;;;;;47.83;10.40;;;6.20;76.60;;;;;;5027150;28;20128;-71
2024/01/25 00:37:41;;;;;;;48.93;10.50;;;6.10;76.90;;;;;;5028695;28;20041;-72
2024/01/25 00:40:08;;;;;;;62.80;10.87;;;6.10;76.90;;;;;;5011528;28;20049;-71
2024/01/25 00:42:39;;;;;;;48.17;9.87;;;6.00;77.00;;;;;;5012195;28;20061;-72
2024/01/25 00:45:05;;;;;;;56.33;10.82;;;6.00;77.20;;;;;;5030627;28;20127;-73
2024/01/25 00:47:31;;;;;;;53.80;10.90;;;5.90;77.60;;;;;;5026963;28;20506;-73
2024/01/25 00:49:57;;;;;;;55.87;10.73;;;5.90;77.80;;;;;;5033398;28;20045;-71
2024/01/25 00:52:23;;;;;;;46.83;10.20;;;5.90;77.70;;;;;;5035396;28;20540;-71
2024/01/25 00:54:49;;;;;;;51.70;10.20;;;5.80;77.70;;;;;;5029586;28;20131;-71
2024/01/25 00:57:15;;;;;;;59.43;10.73;;;5.80;78.10;;;;;;5030909;28;20050;-71
2024/01/25 00:59:41;;;;;;;57.93;10.47;;;5.80;78.20;;;;;;5013734;28;20527;-73
2024/01/25 01:02:10;;;;;;;58.37;11.20;;;5.80;78.20;;;;;;5031814;28;20160;-71
2024/01/25 01:04:37;;;;;;;55.33;10.37;;;5.80;78.20;;;;;;5030572;28;20421;-72
2024/01/25 01:07:03;;;;;;;55.80;10.80;;;5.80;78.40;;;;;;5025670;28;20070;-71
2024/01/25 01:09:29;;;;;;;54.20;10.73;;;5.80;78.30;;;;;;5028355;28;20152;-72
2024/01/25 01:11:55;;;;;;;55.60;10.67;;;5.80;78.30;;;;;;5026720;28;20543;-71
2024/01/25 01:14:20;;;;;;;52.13;10.83;;;5.80;78.20;;;;;;5032323;28;20169;-71
2024/01/25 01:16:46;;;;;;;49.70;10.23;;;5.80;78.40;;;;;;5035627;28;20121;-72
2024/01/25 01:19:12;;;;;;;55.40;10.00;;;5.80;78.10;;;;;;5037984;28;20084;-71
2024/01/25 01:21:41;;;;;;;54.60;10.40;;;5.90;78.20;;;;;;5036656;28;20061;-71
2024/01/25 01:24:06;;;;;;;48.60;9.33;;;5.90;78.00;;;;;;5014093;28;20827;-71
2024/01/25 01:26:35;;;;;;;57.60;10.43;;;5.80;77.80;;;;;;5036293;28;20049;-71
2024/01/25 01:29:00;;;;;;;46.23;9.33;;;5.80;78.00;;;;;;5020880;28;20091;-72
2024/01/25 01:31:26;;;;;;;52.53;9.10;;;5.80;78.00;;;;;;5041588;28;20053;-71
2024/01/25 01:33:52;;;;;;;49.83;9.00;;;5.80;78.10;;;;;;5018636;28;20067;-71
2024/01/25 01:36:17;;;;;;;50.80;9.90;;;5.80;77.90;;;;;;5040305;28;20041;-71
2024/01/25 01:38:43;;;;;;;52.70;10.63;;;5.80;77.90;;;;;;5040171;28;20151;-71
2024/01/25 01:41:11;;;;;;;51.20;9.60;;;5.80;78.20;;;;;;5023087;28;20049;-71
2024/01/25 01:43:37;;;;;;;51.33;10.43;;;5.80;78.20;;;;;;5017779;28;20148;-72
2024/01/25 01:46:11;;;;;;;49.90;9.83;;;5.80;78.30;;;;;;5024042;28;20471;-71
2024/01/25 01:48:39;;;;;;;47.03;9.87;;;5.80;78.40;;;;;;5019383;28;20444;-71
2024/01/25 01:51:05;;;;;;;45.17;9.87;;;5.80;78.30;;;;;;5034295;28;20036;-71
2024/01/25 01:53:33;;;;;;;45.57;10.60;;;5.80;78.30;;;;;;5024222;28;20179;-71
2024/01/25 01:55:58;;;;;;;58.30;10.33;;;5.80;78.50;;;;;;5030355;28;20079;-71
2024/01/25 01:58:26;;;;;;;54.53;10.43;;;5.80;78.50;;;;;;5034984;28;20092;-71
2024/01/25 02:00:54;;;;;;;50.43;10.20;;;5.70;78.40;;;;;;5040567;28;20632;-71
2024/01/25 02:03:19;;;;;;;59.27;11.23;;;5.70;78.60;;;;;;5042315;28;20136;-71
2024/01/25 02:05:45;;;;;;;52.30;10.53;;;5.70;78.70;;;;;;5033566;28;20124;-71
2024/01/25 02:08:12;;;;;;;55.87;11.07;;;5.70;79.10;;;;;;5030885;28;20103;-71
2024/01/25 02:10:38;;;;;;;48.87;9.57;;;5.70;79.00;;;;;;5035156;28;20155;-72
2024/01/25 02:13:04;;;;;;;57.70;10.63;;;5.70;79.10;;;;;;5025818;28;20052;-71
2024/01/25 02:15:29;;;;;;;54.80;10.00;;;5.70;79.20;;;;;;5031202;28;20064;-72
2024/01/25 02:17:56;;;;;;;58.87;10.50;;;5.60;79.00;;;;;;5031880;28;20083;-71
2024/01/25 02:20:21;;;;;;;63.23;11.10;;;5.60;79.00;;;;;;5015681;28;20075;-71
2024/01/25 02:22:47;;;;;;;51.70;10.33;;;5.60;79.40;;;;;;5030432;28;20512;-71
2024/01/25 02:25:13;;;;;;;57.00;11.20;;;5.50;79.40;;;;;;5033973;28;20053;-73
2024/01/25 02:27:39;;;;;;;57.63;11.07;;;5.50;79.70;;;;;;5032916;28;20065;-72
2024/01/25 02:30:06;;;;;;;63.17;10.83;;;5.50;79.50;;;;;;5034907;28;20110;-72
2024/01/25 02:32:33;;;;;;;56.50;11.00;;;5.50;79.70;;;;;;5030410;28;20370;-71
2024/01/25 02:34:58;;;;;;;58.17;10.73;;;5.50;79.70;;;;;;5023020;28;20424;-71
2024/01/25 02:37:24;;;;;;;57.80;11.07;;;5.50;79.80;;;;;;5029578;28;20088;-71
2024/01/25 02:39:51;;;;;;;59.03;10.57;;;5.50;79.70;;;;;;5036992;28;20061;-71
2024/01/25 02:42:16;;;;;;;59.03;10.97;;;5.40;79.80;;;;;;5033042;28;20154;-72
2024/01/25 02:44:43;;;;;;;57.87;10.87;;;5.30;80.20;;;;;;5030355;28;20081;-71
2024/01/25 02:47:09;;;;;;;64.90;11.20;;;5.30;80.10;;;;;;5014672;28;20131;-72
2024/01/25 02:49:35;;;;;;;61.63;12.23;;;5.30;80.50;;;;;;5034830;28;20099;-71
2024/01/25 02:52:01;;;;;;;62.23;11.70;;;5.30;80.30;;;;;;5011955;28;20034;-72
2024/01/25 02:54:26;;;;;;;67.93;11.67;;;5.20;80.40;;;;;;5012352;28;20483;-73
2024/01/25 02:56:52;;;;;;;67.30;11.20;;;5.10;80.50;;;;;;5013586;28;20049;-71
2024/01/25 02:59:18;;;;;;;61.07;10.83;;;5.10;80.60;;;;;;5034901;28;20504;-71
2024/01/25 03:01:44;;;;;;;62.77;10.90;;;5.00;80.70;;;;;;5029675;28;20389;-72
2024/01/25 03:04:10;;;;;;;62.33;10.93;;;5.00;81.10;;;;;;5036205;28;20120;-71
2024/01/25 03:06:36;;;;;;;65.10;11.50;;;5.00;81.10;;;;;;5030293;28;20140;-71
2024/01/25 03:09:04;;;;;;;70.60;12.43;;;5.00;81.10;;;;;;5035411;28;20129;-71
2024/01/25 03:11:30;;;;;;;65.27;11.60;;;5.00;81.30;;;;;;5029297;28;20064;-71
2024/01/25 03:13:56;;;;;;;78.57;11.97;;;5.00;81.50;;;;;;5037173;28;20056;-72
2024/01/25 03:16:22;;;;;;;64.47;12.40;;;4.90;81.50;;;;;;5019775;28;20453;-72
2024/01/25 03:18:48;;;;;;;60.67;11.73;;;4.90;81.80;;;;;;5019952;28;20058;-72
2024/01/25 03:21:14;;;;;;;66.67;11.53;;;4.90;81.70;;;;;;5024042;28;20044;-72
2024/01/25 03:23:39;;;;;;;72.13;12.33;;;4.90;81.60;;;;;;5040961;28;20049;-72
2024/01/25 03:26:05;;;;;;;64.53;11.97;;;4.90;81.70;;;;;;5018763;28;20064;-72
2024/01/25 03:28:32;;;;;;;67.00;12.43;;;4.90;81.80;;;;;;5022474;28;20045;-73
2024/01/25 03:30:58;;;;;;;71.63;12.83;;;4.90;81.80;;;;;;5036242;28;20606;-73
2024/01/25 03:33:25;;;;;;;63.77;12.77;;;4.80;81.90;;;;;;5038881;28;20073;-72
2024/01/25 03:35:51;;;;;;;78.20;11.47;;;4.80;81.80;;;;;;5016645;28;20047;-73
2024/01/25 03:38:17;;;;;;;81.23;13.07;;;4.70;81.80;;;;;;5037725;28;20052;-72
2024/01/25 03:40:43;;;;;;;72.67;12.20;;;4.70;81.90;;;;;;5038525;28;20049;-72
2024/01/25 03:43:09;;;;;;;61.47;12.03;;;4.70;81.90;;;;;;5032828;28;20227;-72
2024/01/25 03:45:35;;;;;;;66.33;11.77;;;4.70;82.00;;;;;;5039627;28;20056;-72
2024/01/25 03:48:00;;;;;;;73.03;12.37;;;4.60;82.20;;;;;;5040233;28;20627;-72
2024/01/25 03:50:27;;;;;;;70.97;11.83;;;4.60;82.30;;;;;;5007291;28;20049;-72
2024/01/25 03:52:52;;;;;;;61.70;12.20;;;4.60;82.30;;;;;;5016433;28;20440;-72
2024/01/25 03:55:18;;;;;;;76.43;12.73;;;4.50;82.50;;;;;;5010773;28;20132;-73
2024/01/25 03:57:44;;;;;;;64.63;12.00;;;4.50;82.40;;;;;;5008226;28;20441;-72
2024/01/25 04:00:11;;;;;;;74.40;12.53;;;4.50;82.50;;;;;;5028485;28;20055;-71
2024/01/25 04:02:37;;;;;;;69.93;13.13;;;4.50;82.50;;;;;;5030686;28;20060;-72
2024/01/25 04:05:04;;;;;;;74.43;11.80;;;4.50;82.60;;;;;;5028120;28;20522;-71
2024/01/25 04:07:29;;;;;;;67.97;12.67;;;4.50;82.60;;;;;;5030548;28;20516;-72
2024/01/25 04:09:55;;;;;;;68.50;12.20;;;4.40;82.80;;;;;;5009763;28;20094;-71
2024/01/25 04:12:21;;;;;;;75.30;11.30;;;4.40;83.10;;;;;;5031188;28;20744;-72
2024/01/25 04:14:46;;;;;;;68.00;11.93;;;4.40;82.80;;;;;;5015186;28;20072;-71
2024/01/25 04:17:12;;;;;;;72.20;12.23;;;4.40;82.90;;;;;;5011357;28;20058;-72
2024/01/25 04:19:38;;;;;;;73.33;12.00;;;4.40;83.10;;;;;;5033496;28;20499;-71
2024/01/25 04:22:03;;;;;;;76.23;12.43;;;4.40;83.00;;;;;;5029814;28;20053;-72
2024/01/25 04:24:29;;;;;;;76.77;11.47;;;4.40;82.90;;;;;;5029652;28;20045;-72
2024/01/25 04:26:55;;;;;;;69.57;12.30;;;4.40;82.90;;;;;;5006769;28;20416;-70
2024/01/25 04:29:20;;;;;;;79.60;12.23;;;4.30;82.90;;;;;;5014393;28;20048;-71
2024/01/25 04:31:48;;;;;;;74.80;12.27;;;4.30;82.90;;;;;;5030525;28;20077;-72
2024/01/25 04:34:14;;;;;;;81.67;12.40;;;4.30;83.00;;;;;;5029723;28;20053;-71
2024/01/25 04:36:40;;;;;;;69.27;12.63;;;4.20;82.80;;;;;;5032694;28;20041;-72
2024/01/25 04:39:06;;;;;;;88.23;13.33;;;4.20;82.90;;;;;;5032382;28;20076;-72
2024/01/25 04:41:32;;;;;;;74.63;12.73;;;4.20;82.90;;;;;;5029903;28;20044;-71
2024/01/25 04:43:57;;;;;;;62.30;11.23;;;4.10;82.80;;;;;;5030348;28;20095;-71
2024/01/25 04:46:23;;;;;;;66.07;11.37;;;4.10;83.00;;;;;;5010669;28;20493;-71
2024/01/25 04:48:49;;;;;;;73.90;11.67;;;4.10;83.00;;;;;;5013162;28;20046;-71
2024/01/25 04:51:19;;;;;;;80.00;11.93;;;4.10;83.10;;;;;;5031161;28;20079;-71
2024/01/25 04:53:45;;;;;;;72.40;12.73;;;4.10;83.20;;;;;;5009622;28;20128;-72
2024/01/25 04:56:11;;;;;;;73.63;11.63;;;4.10;83.20;;;;;;5030012;28;20080;-72
2024/01/25 04:58:37;;;;;;;69.63;11.70;;;4.10;83.20;;;;;;5021864;28;20076;-71
2024/01/25 05:01:02;;;;;;;78.77;13.20;;;4.10;83.20;;;;;;5011582;28;20056;-72
2024/01/25 05:03:28;;;;;;;65.90;11.77;;;4.00;83.00;;;;;;5029595;28;20098;-73
2024/01/25 05:05:54;;;;;;;80.17;12.57;;;4.00;83.10;;;;;;5013453;28;20053;-73
2024/01/25 05:08:19;;;;;;;63.37;11.73;;;4.00;83.10;;;;;;5025687;28;20072;-71
2024/01/25 05:10:45;;;;;;;74.63;12.20;;;4.00;83.00;;;;;;5016930;28;20141;-72
2024/01/25 05:13:12;;;;;;;72.27;12.53;;;4.00;83.00;;;;;;5026977;28;20668;-72
2024/01/25 05:15:38;;;;;;;71.30;11.87;;;3.90;83.10;;;;;;5033865;28;20053;-72
2024/01/25 05:18:04;;;;;;;81.80;12.20;;;3.90;83.00;;;;;;5041392;28;20044;-71
2024/01/25 05:20:32;;;;;;;85.67;13.53;;;3.90;83.10;;;;;;5024452;28;20120;-72
2024/01/25 05:23:02;;;;;;;75.70;12.10;;;3.90;83.30;;;;;;5039221;28;20045;-71
2024/01/25 05:25:28;;;;;;;83.37;12.13;;;3.90;83.20;;;;;;5036406;28;20041;-71
2024/01/25 05:27:55;;;;;;;77.60;12.83;;;3.90;83.20;;;;;;5042537;28;20048;-71
2024/01/25 05:30:28;;;;;;;78.13;12.87;;;3.80;83.20;;;;;;5030992;28;20525;-72
2024/01/25 05:32:54;;;;;;;79.57;12.77;;;3.70;83.20;;;;;;5024299;28;20486;-73
2024/01/25 05:35:20;;;;;;;83.77;12.77;;;3.70;83.20;;;;;;5026724;28;20393;-71
2024/01/25 05:37:46;;;;;;;77.13;12.67;;;3.70;83.30;;;;;;5008451;28;20037;-71
2024/01/25 05:40:12;;;;;;;75.57;11.57;;;3.60;83.30;;;;;;5040068;28;20049;-71
2024/01/25 05:42:40;;;;;;;83.83;11.90;;;3.60;83.50;;;;;;5022585;28;20056;-72
2024/01/25 05:45:06;;;;;;;75.87;11.70;;;3.60;83.40;;;;;;5028411;28;20522;-71
2024/01/25 05:47:32;;;;;;;73.40;12.17;;;3.60;83.50;;;;;;5028874;28;20056;-73
2024/01/25 05:49:57;;;;;;;75.33;12.03;;;3.60;83.40;;;;;;5020413;28;20064;-71
2024/01/25 05:52:24;;;;;;;59.13;11.23;;;3.50;83.50;;;;;;5029728;28;20071;-71
2024/01/25 05:54:52;;;;;;;72.20;11.87;;;3.60;83.60;;;;;;5002977;28;20044;-71
2024/01/25 05:57:19;;;;;;;79.57;11.47;;;3.50;83.50;;;;;;5032264;28;20493;-71
2024/01/25 05:59:44;;;;;;;75.90;11.53;;;3.50;83.50;;;;;;5030915;28;20049;-71
2024/01/25 06:02:10;;;;;;;70.23;11.83;;;3.50;83.50;;;;;;5012038;28;20452;-71
2024/01/25 06:04:36;;;;;;;61.80;11.80;;;3.50;83.40;;;;;;5013107;28;20048;-71
2024/01/25 06:07:03;;;;;;;71.63;12.13;;;3.50;83.50;;;;;;5010089;28;20064;-71
2024/01/25 06:09:28;;;;;;;76.20;11.73;;;3.50;83.50;;;;;;5017003;28;20053;-72
2024/01/25 06:11:54;;;;;;;74.67;12.07;;;3.50;83.80;;;;;;5013616;28;20091;-71
2024/01/25 06:14:20;;;;;;;84.17;12.40;;;3.50;83.90;;;;;;5020478;28;20045;-73
2024/01/25 06:16:46;;;;;;;77.50;13.67;;;3.50;84.10;;;;;;5014811;28;20095;-71
2024/01/25 06:19:11;;;;;;;85.03;12.97;;;3.50;84.30;;;;;;4996096;28;20141;-72
2024/01/25 06:21:37;;;;;;;80.47;12.07;;;3.60;84.30;;;;;;5028548;28;20144;-73
2024/01/25 06:24:06;;;;;;;84.40;12.40;;;3.60;84.40;;;;;;5026919;28;20599;-71
2024/01/25 06:26:32;;;;;;;81.07;12.87;;;3.70;84.60;;;;;;5029690;28;20083;-71
2024/01/25 06:28:58;;;;;;;74.00;11.77;;;3.70;84.60;;;;;;5030291;28;20053;-72
2024/01/25 06:31:27;;;;;;;82.97;12.33;;;3.70;84.50;;;;;;5012280;28;20075;-71
2024/01/25 06:33:53;;;;;;;83.50;12.00;;;3.70;84.40;;;;;;5019824;28;20048;-72
2024/01/25 06:36:19;;;;;;;79.60;12.70;;;3.70;84.40;;;;;;5043999;28;20061;-73
2024/01/25 06:38:45;;;;;;;96.50;14.23;;;3.70;84.30;;;;;;5046065;28;20102;-71
2024/01/25 06:41:11;;;;;;;85.80;14.80;;;3.70;84.20;;;;;;5029797;28;20045;-71
2024/01/25 06:43:37;;;;;;;73.13;14.10;;;3.80;84.40;;;;;;5023928;28;20045;-71
2024/01/25 06:46:03;;;;;;;81.47;13.40;;;3.80;84.40;;;;;;5024157;28;20053;-71
2024/01/25 06:48:29;;;;;;;72.63;12.93;;;3.80;84.40;;;;;;5023930;28;20128;-71
2024/01/25 06:50:54;;;;;;;86.07;12.20;;;3.80;84.40;;;;;;5023072;28;20057;-72
2024/01/25 06:53:21;;;;;;;80.90;11.93;;;3.70;84.30;;;;;;5033422;28;20416;-71
2024/01/25 06:55:46;;;;;;;83.77;11.00;;;3.80;84.30;;;;;;5036316;28;20057;-72
2024/01/25 06:58:13;;;;;;;84.20;12.03;;;3.70;84.30;;;;;;5033897;28;20059;-72
2024/01/25 07:00:39;;;;;;;80.03;11.93;;;3.70;84.40;;;;;;5013370;28;20057;-73
2024/01/25 07:03:05;;;;;;;84.53;12.03;;;3.70;84.30;;;;;;5003161;28;20119;-72
2024/01/25 07:05:33;;;;;;;85.77;12.43;;;3.70;84.20;;;;;;5028182;28;20517;-73
2024/01/25 07:07:59;;;;;;;87.10;13.17;;;3.70;84.20;;;;;;5036373;28;20056;-72
2024/01/25 07:10:26;;;;;;;76.67;12.63;;;3.70;84.20;;;;;;5026245;28;20492;-73
2024/01/25 07:12:53;;;;;;;74.70;10.97;;;3.70;84.20;;;;;;5036195;28;20102;-72
2024/01/25 07:15:19;;;;;;;80.73;13.13;;;3.60;84.20;;;;;;5025941;28;20436;-72
2024/01/25 07:17:45;;;;;;;92.07;12.53;;;3.60;84.10;;;;;;5028254;28;20048;-72
2024/01/25 07:20:11;;;;;;;74.80;12.20;;;3.60;84.00;;;;;;5029179;28;20366;-72
2024/01/25 07:22:37;;;;;;;79.67;11.57;;;3.60;83.90;;;;;;5027553;28;20048;-72
2024/01/25 07:25:03;;;;;;;82.10;12.03;;;3.50;83.90;;;;;;5015700;28;20041;-72
2024/01/25 07:27:29;;;;;;;89.53;11.77;;;3.50;83.90;;;;;;5047252;28;20065;-73
2024/01/25 07:29:54;;;;;;;91.13;12.53;;;3.50;83.70;;;;;;5019941;28;20037;-73
2024/01/25 07:32:20;;;;;;;75.33;12.37;;;3.30;83.50;;;;;;5002646;28;20053;-72
2024/01/25 07:34:46;;;;;;;86.83;12.33;;;3.30;83.60;;;;;;5028269;28;20530;-72
2024/01/25 07:37:15;;;;;;;73.87;11.53;;;3.20;83.50;;;;;;5019036;28;20673;-72
2024/01/25 07:39:41;;;;;;;85.93;12.83;;;3.10;83.70;;;;;;5022559;28;20055;-72
2024/01/25 07:42:07;;;;;;;73.73;12.37;;;3.10;83.80;;;;;;5032971;28;20061;-72
2024/01/25 07:44:33;;;;;;;83.53;11.77;;;3.10;83.90;;;;;;5014443;28;20478;-72
2024/01/25 07:46:59;;;;;;;88.30;13.20;;;3.10;84.00;;;;;;5012651;28;20080;-72
2024/01/25 07:49:25;;;;;;;81.37;12.20;;;3.10;84.10;;;;;;5013441;28;20056;-71
2024/01/25 07:51:50;;;;;;;96.07;13.07;;;3.10;84.30;;;;;;5028902;28;20049;-72
2024/01/25 07:54:16;;;;;;;78.20;12.03;;;3.20;84.20;;;;;;5041782;28;20053;-71
2024/01/25 07:56:42;;;;;;;91.23;12.70;;;3.30;84.40;;;;;;5026624;28;20048;-72
2024/01/25 07:59:07;;;;;;;88.80;12.77;;;3.30;84.40;;;;;;5020368;28;20564;-71
2024/01/25 08:01:33;;;;;;;84.97;12.83;;;3.30;84.40;;;;;;5021019;28;20056;-72
2024/01/25 08:03:59;;;;;;;86.03;13.53;;;3.30;84.30;;;;;;5007981;28;20045;-72
2024/01/25 08:06:27;;;;;;;84.83;13.03;;;3.30;84.30;;;;;;5016677;28;21024;-71
2024/01/25 08:08:52;;;;;;;92.60;13.80;;;3.30;84.40;;;;;;5021844;28;20065;-72
2024/01/25 08:11:20;;;;;;;85.03;13.43;;;3.30;84.30;;;;;;5022482;28;20437;-71
2024/01/25 08:13:47;;;;;;;90.83;13.37;;;3.30;84.30;;;;;;5044942;28;20049;-72
2024/01/25 08:16:13;;;;;;;93.03;12.57;;;3.30;84.30;;;;;;5040068;28;20049;-71
2024/01/25 08:18:39;;;;;;;88.03;12.77;;;3.40;84.40;;;;;;5041474;28;20511;-71
2024/01/25 08:21:05;;;;;;;81.43;13.00;;;3.40;84.40;;;;;;5043182;28;20069;-72
2024/01/25 08:23:31;;;;;;;101.87;13.93;;;3.40;84.50;;;;;;5033347;28;20133;-72
2024/01/25 08:25:57;;;;;;;88.83;14.03;;;3.50;84.60;;;;;;4995452;28;20162;-72
2024/01/25 08:28:23;;;;;;;88.43;13.63;;;3.50;84.60;;;;;;5022351;28;20132;-71
2024/01/25 08:30:49;;;;;;;93.53;13.80;;;3.50;84.70;;;;;;5014418;28;20072;-71
2024/01/25 08:33:15;;;;;;;95.53;13.97;;;3.50;84.60;;;;;;5009633;28;20053;-71
2024/01/25 08:35:40;;;;;;;92.13;13.37;;;3.50;84.60;;;;;;5040068;28;20052;-73
2024/01/25 08:38:07;;;;;;;97.23;14.60;;;3.60;84.60;;;;;;5043535;28;20059;-71
2024/01/25 08:40:33;;;;;;;93.23;14.27;;;3.60;84.70;;;;;;5046994;28;20060;-72
2024/01/25 08:42:59;;;;;;;93.53;14.10;;;3.70;84.70;;;;;;5018810;28;20082;-72
2024/01/25 08:45:25;;;;;;;108.10;14.43;;;3.70;84.70;;;;;;5032473;28;20060;-73
2024/01/25 08:47:52;;;;;;;97.60;14.20;;;3.70;84.70;;;;;;5032270;28;20052;-72
2024/01/25 08:50:17;;;;;;;92.23;14.13;;;3.70;84.70;;;;;;5015934;28;20063;-73
2024/01/25 08:52:44;;;;;;;104.77;14.73;;;3.80;84.70;;;;;;5014008;28;20057;-73
2024/01/25 08:55:09;;;;;;;90.20;14.17;;;3.90;84.80;;;;;;5013152;28;20056;-71
2024/01/25 08:57:35;;;;;;;89.60;14.80;;;3.90;84.90;;;;;;5033701;28;20076;-72
2024/01/25 09:00:02;;;;;;;91.97;14.57;;;3.90;85.00;;;;;;5032683;28;20094;-73
2024/01/25 09:02:29;;;;;;;81.77;14.13;;;3.90;84.90;;;;;;5012464;28;20575;-72
2024/01/25 09:04:55;;;;;;;88.00;14.70;;;4.00;85.00;;;;;;5013646;28;20052;-72
2024/01/25 09:07:21;;;;;;;93.40;14.50;;;4.00;85.00;;;;;;5017055;28;20057;-73
2024/01/25 09:09:47;;;;;;;83.17;14.60;;;4.10;84.90;;;;;;5033817;28;20412;-72
2024/01/25 09:12:14;;;;;;;91.33;13.47;;;4.10;85.00;;;;;;5014540;28;20057;-72
2024/01/25 09:14:40;;;;;;;94.17;14.67;;;4.20;85.00;;;;;;5032392;28;20535;-73
2024/01/25 09:17:06;;;;;;;94.20;14.47;;;4.30;84.90;;;;;;5013845;28;20040;-72
2024/01/25 09:19:31;;;;;;;89.47;14.60;;;4.30;84.80;;;;;;5032668;28;20064;-73
2024/01/25 09:22:04;;;;;;;89.77;14.63;;;4.40;84.80;;;;;;5012186;28;21174;-71
2024/01/25 09:24:30;;;;;;;91.40;14.77;;;4.40;84.80;;;;;;5013269;28;20095;-73
2024/01/25 09:26:58;;;;;;;81.70;13.80;;;4.50;84.80;;;;;;5014070;28;20041;-71
2024/01/25 09:29:24;;;;;;;85.13;13.77;;;4.50;84.70;;;;;;4993481;28;20057;-73
2024/01/25 09:31:50;;;;;;;93.63;14.63;;;4.50;84.70;;;;;;4996683;28;20127;-72
2024/01/25 09:34:16;;;;;;;90.97;14.43;;;4.70;84.70;;;;;;5019672;28;20064;-72
2024/01/25 09:36:42;;;;;;;83.23;14.20;;;4.70;84.80;;;;;;5010873;28;20061;-72
2024/01/25 09:39:08;;;;;;;77.73;14.50;;;4.70;84.70;;;;;;5010009;28;20523;-73
2024/01/25 09:41:34;;;;;;;78.30;13.70;;;4.80;84.70;;;;;;5005917;28;20163;-72
2024/01/25 09:44:00;;;;;;;88.67;14.27;;;4.90;84.60;;;;;;5008433;28;20057;-74
2024/01/25 09:46:26;;;;;;;80.90;13.60;;;4.90;84.60;;;;;;5007212;28;20079;-73
2024/01/25 09:48:51;;;;;;;88.20;13.63;;;5.00;84.50;;;;;;5004254;28;20057;-73
2024/01/25 09:51:17;;;;;;;75.13;13.07;;;5.00;84.50;;;;;;5004491;28;20045;-72
2024/01/25 09:53:45;;;;;;;75.77;12.97;;;5.10;84.40;;;;;;5004914;28;20053;-72
2024/01/25 09:56:12;;;;;;;76.73;13.30;;;5.10;84.20;;;;;;5008365;28;20049;-72
2024/01/25 09:58:41;;;;;;;77.13;12.97;;;5.30;84.10;;;;;;5007260;28;20386;-72
2024/01/25 10:01:12;;;;;;;73.57;12.53;;;5.30;84.00;;;;;;5005387;28;20412;-72
2024/01/25 10:03:44;;;;;;;72.27;13.20;;;5.50;83.90;;;;;;4987709;28;20505;-72
2024/01/25 10:06:15;;;;;;;79.77;13.13;;;5.70;83.80;;;;;;5007283;28;21624;-73
2024/01/25 10:08:41;;;;;;;66.80;12.17;;;6.10;83.20;;;;;;5005166;28;20376;-73
2024/01/25 10:11:14;;;;;;;74.00;13.43;;;6.40;82.90;;;;;;5005029;28;20113;-72
2024/01/25 10:13:43;;;;;;;61.57;11.33;;;6.70;82.50;;;;;;5007790;28;20057;-74
2024/01/25 10:16:18;;;;;;;51.67;10.57;;;6.80;81.90;;;;;;5010625;28;20075;-73
2024/01/25 10:18:46;;;;;;;60.60;11.77;;;6.90;81.40;;;;;;5027630;28;20053;-74
2024/01/25 10:21:13;;;;;;;58.03;11.60;;;6.90;81.10;;;;;;5025993;28;20049;-73
2024/01/25 10:23:40;;;;;;;55.93;10.63;;;7.00;80.80;;;;;;5010867;28;20404;-72
2024/01/25 10:26:07;;;;;;;62.37;11.27;;;7.00;80.60;;;;;;5023280;28;20057;-72
2024/01/25 10:28:33;;;;;;;56.70;12.37;;;7.00;80.40;;;;;;5027247;28;20096;-73
2024/01/25 10:31:04;;;;;;;55.37;11.10;;;7.00;80.20;;;;;;5027834;28;20508;-72
2024/01/25 10:33:31;;;;;;;44.10;8.60;;;6.80;80.10;;;;;;5031296;28;20124;-73
2024/01/25 10:36:03;;;;;;;55.60;11.33;;;6.70;79.80;;;;;;4992166;28;20291;-73
2024/01/25 10:38:32;;;;;;;54.87;11.63;;;6.50;80.30;;;;;;5009746;28;20049;-72
2024/01/25 10:41:01;;;;;;;58.53;11.47;;;6.50;80.50;;;;;;5009870;28;20591;-72
2024/01/25 10:43:27;;;;;;;60.17;12.07;;;6.80;80.90;;;;;;5029623;28;20109;-74
2024/01/25 10:45:57;;;;;;;50.97;11.30;;;7.20;80.50;;;;;;5023866;28;20111;-73
2024/01/25 10:48:23;;;;;;;57.93;12.17;;;7.50;80.10;;;;;;5008200;28;20052;-74
2024/01/25 10:50:49;;;;;;;51.60;10.90;;;7.90;79.70;;;;;;5007334;28;20053;-75
2024/01/25 10:53:18;;;;;;;45.67;11.10;;;8.20;78.50;;;;;;5027230;28;20832;-73
2024/01/25 10:55:45;;;;;;;44.83;11.10;;;8.60;77.70;;;;;;5026067;28;20488;-73
2024/01/25 10:58:15;;;;;;;54.70;11.33;;;9.00;77.50;;;;;;5007312;28;20056;-74
2024/01/25 11:00:41;;;;;;;46.67;10.05;;;9.20;76.50;;;;;;5006701;28;20072;-72
2024/01/25 11:03:08;;;;;;;50.37;11.03;;;9.40;76.20;;;;;;5006946;28;20052;-73
2024/01/25 11:05:33;;;;;;;53.80;10.90;;;9.40;75.60;;;;;;5026270;28;20059;-74
2024/01/25 11:08:00;;;;;;;45.83;9.73;;;9.50;75.40;;;;;;5004373;28;20041;-73
2024/01/25 11:10:27;;;;;;;52.50;10.57;;;9.40;74.70;;;;;;4990663;28;20049;-72
2024/01/25 11:13:03;;;;;;;42.20;9.43;;;9.00;74.90;;;;;;4990019;28;20040;-73
2024/01/25 11:15:37;;;;;;;44.23;10.47;;;8.90;75.90;;;;;;5025495;28;20531;-74
2024/01/25 11:18:07;;;;;;;43.30;11.10;;;8.80;75.90;;;;;;5025308;28;20388;-73
2024/01/25 11:20:35;;;;;;;48.70;11.48;;;8.70;76.10;;;;;;5025343;28;20049;-72
2024/01/25 11:23:04;;;;;;;54.67;11.80;;;8.90;75.70;;;;;;5026570;28;20049;-74
2024/01/25 11:25:37;;;;;;;51.63;10.80;;;9.00;75.70;;;;;;5023547;28;20061;-72
2024/01/25 11:28:04;;;;;;;43.57;10.87;;;9.20;75.10;;;;;;5013347;28;20411;-74
2024/01/25 11:30:34;;;;;;;50.47;10.90;;;9.00;74.60;;;;;;5008198;28;20711;-72
2024/01/25 11:33:00;;;;;;;47.80;11.00;;;9.20;74.80;;;;;;5028797;28;20075;-74
2024/01/25 11:35:26;;;;;;;50.57;9.80;;;9.50;74.40;;;;;;5007226;28;20099;-73
2024/01/25 11:37:52;;;;;;;48.63;10.90;;;9.80;73.00;;;;;;5009465;28;20059;-73
2024/01/25 11:40:19;;;;;;;56.10;11.50;;;9.80;72.90;;;;;;4997385;28;20056;-73
2024/01/25 11:42:49;;;;;;;51.83;10.90;;;9.50;72.90;;;;;;5022337;28;20052;-72
2024/01/25 11:45:16;;;;;;;45.95;11.20;;;9.00;73.50;;;;;;5018729;28;20576;-73
2024/01/25 11:47:43;;;;;;;49.77;11.17;;;8.50;74.10;;;;;;5015878;28;20064;-73
2024/01/25 11:50:10;;;;;;;54.10;10.70;;;8.10;75.00;;;;;;5006948;28;20081;-73
2024/01/25 11:52:37;;;;;;;55.90;11.20;;;8.00;75.50;;;;;;5005341;28;20104;-72
2024/01/25 11:55:04;;;;;;;41.80;9.33;;;7.90;76.20;;;;;;5007834;28;20190;-72
2024/01/25 11:57:37;;;;;;;49.23;10.47;;;8.00;76.60;;;;;;5009497;28;20141;-72
2024/01/25 12:00:05;;;;;;;41.00;9.73;;;8.10;76.50;;;;;;5011914;28;20049;-74
2024/01/25 12:02:32;;;;;;;46.73;9.57;;;8.20;76.50;;;;;;5000205;28;20531;-72
2024/01/25 12:04:58;;;;;;;46.00;11.00;;;8.00;76.30;;;;;;5004737;28;20099;-74
2024/01/25 12:07:23;;;;;;;46.50;10.20;;;7.90;76.20;;;;;;4993486;28;20055;-72
2024/01/25 12:10:06;;;;;;;46.10;10.07;;;7.80;77.00;;;;;;5006075;28;20057;-73
2024/01/25 12:12:31;;;;;;;50.93;10.80;;;7.80;77.20;;;;;;5005198;28;20419;-72
2024/01/25 12:15:03;;;;;;;52.17;12.23;;;7.80;77.20;;;;;;5025236;28;20099;-72
2024/01/25 12:17:29;;;;;;;51.92;10.70;;;7.60;77.60;;;;;;5003865;28;20047;-73
2024/01/25 12:19:59;;;;;;;48.90;11.07;;;7.60;77.80;;;;;;5026114;28;20045;-71
2024/01/25 12:22:28;;;;;;;53.70;11.40;;;7.70;78.20;;;;;;5022369;28;21032;-72
2024/01/25 12:24:54;;;;;;;54.47;11.60;;;7.80;77.90;;;;;;5024793;28;20515;-73
2024/01/25 12:27:22;;;;;;;51.47;10.83;;;8.00;77.40;;;;;;5024139;28;20088;-73
2024/01/25 12:29:48;;;;;;;44.97;10.13;;;8.20;77.20;;;;;;5024426;28;20052;-72
2024/01/25 12:32:14;;;;;;;46.70;9.73;;;8.40;76.50;;;;;;5007631;28;20446;-73
2024/01/25 12:34:41;;;;;;;42.83;9.67;;;8.50;76.30;;;;;;5024416;28;20049;-73